sensor_id;sensor_type;location;lat;lon;timestamp;P1;durP1;ratioP1;P2;durP2;ratioP2
69414;SDS011;56608;43.530;-5.652;2022-12-18T00:00:32;13.48;;;8.73;;
69414;SDS011;56608;43.530;-5.652;2022-12-18T00:01:35;14.93;;;9.02;;
69414;SDS011;56608;43.530;-5.652;2022-12-18T00:02:37;18.48;;;9.25;;
69414;SDS011;56608;43.530;-5.652;2022-12-18T00:03:39;18.30;;;9.80;;
69414;SDS011;56608;43.530;-5.652;2022-12-18T00:04:40;15.05;;;9.13;;
69414;SDS011;56608;43.530;-5.652;2022-12-18T00:05:51;14.10;;;8.63;;
69414;SDS011;56608;43.530;-5.652;2022-12-18T00:06:53;16.35;;;9.10;;
69414;SDS011;56608;43.530;-5.652;2022-12-18T00:07:55;17.33;;;8.52;;
69414;SDS011;56608;43.530;-5.652;2022-12-18T00:08:57;17.10;;;9.00;;
69414;SDS011;56608;43.530;-5.652;2022-12-18T00:09:59;15.18;;;10.00;;
69414;SDS011;56608;43.530;-5.652;2022-12-18T00:11:04;16.10;;;9.50;;
69414;SDS011;56608;43.530;-5.652;2022-12-18T00:12:07;14.60;;;8.70;;
69414;SDS011;56608;43.530;-5.652;2022-12-18T00:13:08;15.33;;;8.83;;
69414;SDS011;56608;43.530;-5.652;2022-12-18T00:15:12;13.95;;;8.80;;
69414;SDS011;56608;43.530;-5.652;2022-12-18T00:16:14;13.00;;;9.20;;
69414;SDS011;56608;43.530;-5.652;2022-12-18T00:17:16;15.07;;;9.70;;
69414;SDS011;56608;43.530;-5.652;2022-12-18T00:18:18;13.60;;;8.85;;
69414;SDS011;56608;43.530;-5.652;2022-12-18T00:19:19;12.52;;;7.70;;
69414;SDS011;56608;43.530;-5.652;2022-12-18T00:20:21;17.58;;;9.88;;
69414;SDS011;56608;43.530;-5.652;2022-12-18T00:21:27;13.62;;;8.57;;
69414;SDS011;56608;43.530;-5.652;2022-12-18T00:22:29;15.35;;;8.80;;
69414;SDS011;56608;43.530;-5.652;2022-12-18T00:23:30;12.70;;;8.15;;
69414;SDS011;56608;43.530;-5.652;2022-12-18T00:24:33;14.20;;;7.93;;
69414;SDS011;56608;43.530;-5.652;2022-12-18T00:25:35;12.75;;;7.90;;
69414;SDS011;56608;43.530;-5.652;2022-12-18T00:26:37;11.98;;;7.12;;
69414;SDS011;56608;43.530;-5.652;2022-12-18T00:27:39;14.18;;;7.55;;
69414;SDS011;56608;43.530;-5.652;2022-12-18T00:28:41;12.98;;;6.90;;
69414;SDS011;56608;43.530;-5.652;2022-12-18T00:29:43;11.02;;;7.05;;
69414;SDS011;56608;43.530;-5.652;2022-12-18T00:30:44;12.40;;;6.60;;
69414;SDS011;56608;43.530;-5.652;2022-12-18T00:31:46;11.53;;;7.20;;
69414;SDS011;56608;43.530;-5.652;2022-12-18T00:32:47;12.37;;;7.47;;
69414;SDS011;56608;43.530;-5.652;2022-12-18T00:33:48;14.13;;;7.60;;
69414;SDS011;56608;43.530;-5.652;2022-12-18T00:34:50;10.80;;;7.05;;
69414;SDS011;56608;43.530;-5.652;2022-12-18T00:35:51;13.85;;;7.20;;
69414;SDS011;56608;43.530;-5.652;2022-12-18T00:36:52;12.73;;;7.07;;
69414;SDS011;56608;43.530;-5.652;2022-12-18T00:37:54;11.82;;;7.37;;
69414;SDS011;56608;43.530;-5.652;2022-12-18T00:38:56;11.90;;;6.50;;
69414;SDS011;56608;43.530;-5.652;2022-12-18T00:39:59;10.35;;;5.95;;
69414;SDS011;56608;43.530;-5.652;2022-12-18T00:41:00;12.50;;;6.15;;
69414;SDS011;56608;43.530;-5.652;2022-12-18T00:43:20;12.57;;;6.18;;
69414;SDS011;56608;43.530;-5.652;2022-12-18T00:44:22;9.15;;;5.30;;
69414;SDS011;56608;43.530;-5.652;2022-12-18T00:45:26;7.55;;;5.00;;
69414;SDS011;56608;43.530;-5.652;2022-12-18T00:46:29;11.07;;;5.57;;
69414;SDS011;56608;43.530;-5.652;2022-12-18T00:47:31;8.02;;;4.93;;
69414;SDS011;56608;43.530;-5.652;2022-12-18T00:48:32;10.77;;;5.12;;
69414;SDS011;56608;43.530;-5.652;2022-12-18T00:49:33;7.90;;;4.57;;
69414;SDS011;56608;43.530;-5.652;2022-12-18T00:50:35;8.38;;;5.18;;
69414;SDS011;56608;43.530;-5.652;2022-12-18T00:51:36;9.10;;;5.07;;
69414;SDS011;56608;43.530;-5.652;2022-12-18T00:52:38;7.53;;;4.68;;
69414;SDS011;56608;43.530;-5.652;2022-12-18T00:53:39;8.57;;;4.75;;
69414;SDS011;56608;43.530;-5.652;2022-12-18T00:54:41;6.97;;;4.50;;
69414;SDS011;56608;43.530;-5.652;2022-12-18T00:55:43;7.65;;;4.50;;
69414;SDS011;56608;43.530;-5.652;2022-12-18T00:56:45;6.82;;;4.70;;
69414;SDS011;56608;43.530;-5.652;2022-12-18T00:57:45;10.20;;;5.10;;
69414;SDS011;56608;43.530;-5.652;2022-12-18T00:58:47;7.07;;;4.40;;
69414;SDS011;56608;43.530;-5.652;2022-12-18T00:59:49;10.80;;;5.00;;
69414;SDS011;56608;43.530;-5.652;2022-12-18T01:00:50;9.27;;;6.57;;
69414;SDS011;56608;43.530;-5.652;2022-12-18T01:01:51;10.80;;;5.70;;
69414;SDS011;56608;43.530;-5.652;2022-12-18T01:02:53;12.45;;;6.10;;
69414;SDS011;56608;43.530;-5.652;2022-12-18T01:03:54;9.13;;;5.68;;
69414;SDS011;56608;43.530;-5.652;2022-12-18T01:04:55;8.57;;;6.12;;
69414;SDS011;56608;43.530;-5.652;2022-12-18T01:05:57;9.90;;;6.25;;
69414;SDS011;56608;43.530;-5.652;2022-12-18T01:06:58;10.18;;;6.40;;
69414;SDS011;56608;43.530;-5.652;2022-12-18T01:08:00;10.40;;;6.37;;
69414;SDS011;56608;43.530;-5.652;2022-12-18T01:09:01;11.35;;;6.50;;
69414;SDS011;56608;43.530;-5.652;2022-12-18T01:10:03;12.37;;;6.62;;
69414;SDS011;56608;43.530;-5.652;2022-12-18T01:11:18;11.25;;;6.43;;
69414;SDS011;56608;43.530;-5.652;2022-12-18T01:12:20;9.68;;;6.47;;
69414;SDS011;56608;43.530;-5.652;2022-12-18T01:13:22;20.80;;;13.20;;
69414;SDS011;56608;43.530;-5.652;2022-12-18T01:14:23;18.95;;;14.77;;
69414;SDS011;56608;43.530;-5.652;2022-12-18T01:15:25;21.55;;;14.50;;
69414;SDS011;56608;43.530;-5.652;2022-12-18T01:16:26;21.02;;;15.40;;
69414;SDS011;56608;43.530;-5.652;2022-12-18T01:18:27;23.50;;;15.45;;
69414;SDS011;56608;43.530;-5.652;2022-12-18T01:19:29;22.30;;;13.07;;
69414;SDS011;56608;43.530;-5.652;2022-12-18T01:20:31;18.12;;;13.07;;
69414;SDS011;56608;43.530;-5.652;2022-12-18T01:21:32;16.52;;;12.37;;
69414;SDS011;56608;43.530;-5.652;2022-12-18T01:23:34;27.87;;;14.70;;
69414;SDS011;56608;43.530;-5.652;2022-12-18T01:24:36;19.62;;;11.35;;
69414;SDS011;56608;43.530;-5.652;2022-12-18T01:25:38;19.75;;;10.38;;
69414;SDS011;56608;43.530;-5.652;2022-12-18T01:26:39;21.25;;;11.60;;
69414;SDS011;56608;43.530;-5.652;2022-12-18T01:27:40;22.70;;;11.35;;
69414;SDS011;56608;43.530;-5.652;2022-12-18T01:28:42;15.50;;;8.82;;
69414;SDS011;56608;43.530;-5.652;2022-12-18T01:29:44;12.98;;;8.35;;
69414;SDS011;56608;43.530;-5.652;2022-12-18T01:30:46;16.35;;;10.35;;
69414;SDS011;56608;43.530;-5.652;2022-12-18T01:31:47;16.65;;;9.35;;
69414;SDS011;56608;43.530;-5.652;2022-12-18T01:32:48;15.27;;;8.82;;
69414;SDS011;56608;43.530;-5.652;2022-12-18T01:33:50;11.85;;;7.50;;
69414;SDS011;56608;43.530;-5.652;2022-12-18T01:34:52;11.75;;;7.20;;
69414;SDS011;56608;43.530;-5.652;2022-12-18T01:35:54;11.65;;;6.90;;
69414;SDS011;56608;43.530;-5.652;2022-12-18T01:36:56;10.27;;;6.35;;
69414;SDS011;56608;43.530;-5.652;2022-12-18T01:37:58;11.88;;;7.65;;
69414;SDS011;56608;43.530;-5.652;2022-12-18T01:39:00;14.07;;;6.65;;
69414;SDS011;56608;43.530;-5.652;2022-12-18T01:40:03;10.25;;;6.80;;
69414;SDS011;56608;43.530;-5.652;2022-12-18T01:41:05;11.18;;;7.37;;
69414;SDS011;56608;43.530;-5.652;2022-12-18T01:42:12;11.10;;;6.80;;
69414;SDS011;56608;43.530;-5.652;2022-12-18T01:43:15;10.15;;;7.00;;
69414;SDS011;56608;43.530;-5.652;2022-12-18T01:45:52;11.45;;;6.80;;
69414;SDS011;56608;43.530;-5.652;2022-12-18T01:46:53;10.98;;;6.97;;
69414;SDS011;56608;43.530;-5.652;2022-12-18T01:48:28;11.55;;;7.35;;
69414;SDS011;56608;43.530;-5.652;2022-12-18T01:49:22;11.90;;;6.30;;
69414;SDS011;56608;43.530;-5.652;2022-12-18T01:50:28;11.05;;;7.15;;
69414;SDS011;56608;43.530;-5.652;2022-12-18T01:51:33;11.77;;;7.55;;
69414;SDS011;56608;43.530;-5.652;2022-12-18T01:52:35;9.98;;;6.65;;
69414;SDS011;56608;43.530;-5.652;2022-12-18T01:53:38;12.40;;;6.90;;
69414;SDS011;56608;43.530;-5.652;2022-12-18T01:54:41;11.35;;;7.05;;
69414;SDS011;56608;43.530;-5.652;2022-12-18T01:55:52;10.10;;;6.93;;
69414;SDS011;56608;43.530;-5.652;2022-12-18T01:56:56;10.95;;;6.68;;
69414;SDS011;56608;43.530;-5.652;2022-12-18T01:57:57;7.80;;;6.03;;
69414;SDS011;56608;43.530;-5.652;2022-12-18T01:59:04;11.07;;;6.35;;
69414;SDS011;56608;43.530;-5.652;2022-12-18T02:00:12;9.65;;;6.68;;
69414;SDS011;56608;43.530;-5.652;2022-12-18T02:01:15;8.43;;;6.20;;
69414;SDS011;56608;43.530;-5.652;2022-12-18T02:02:17;12.35;;;6.60;;
69414;SDS011;56608;43.530;-5.652;2022-12-18T02:03:18;8.95;;;5.95;;
69414;SDS011;56608;43.530;-5.652;2022-12-18T02:04:23;9.13;;;6.20;;
69414;SDS011;56608;43.530;-5.652;2022-12-18T02:05:29;9.68;;;5.87;;
69414;SDS011;56608;43.530;-5.652;2022-12-18T02:06:41;10.00;;;6.00;;
69414;SDS011;56608;43.530;-5.652;2022-12-18T02:09:11;10.18;;;5.50;;
69414;SDS011;56608;43.530;-5.652;2022-12-18T02:10:20;15.85;;;5.70;;
69414;SDS011;56608;43.530;-5.652;2022-12-18T02:12:10;7.10;;;4.97;;
69414;SDS011;56608;43.530;-5.652;2022-12-18T02:13:20;6.12;;;4.18;;
69414;SDS011;56608;43.530;-5.652;2022-12-18T02:14:24;7.00;;;4.45;;
69414;SDS011;56608;43.530;-5.652;2022-12-18T02:17:00;8.00;;;4.53;;
69414;SDS011;56608;43.530;-5.652;2022-12-18T02:18:12;6.25;;;4.12;;
69414;SDS011;56608;43.530;-5.652;2022-12-18T02:20:34;5.82;;;3.80;;
69414;SDS011;56608;43.530;-5.652;2022-12-18T02:21:51;10.68;;;4.55;;
69414;SDS011;56608;43.530;-5.652;2022-12-18T02:26:56;9.68;;;4.28;;
69414;SDS011;56608;43.530;-5.652;2022-12-18T02:28:09;6.28;;;3.97;;
69414;SDS011;56608;43.530;-5.652;2022-12-18T02:29:15;5.90;;;4.03;;
69414;SDS011;56608;43.530;-5.652;2022-12-18T02:30:21;6.07;;;4.50;;
69414;SDS011;56608;43.530;-5.652;2022-12-18T02:31:24;6.55;;;4.00;;
69414;SDS011;56608;43.530;-5.652;2022-12-18T02:32:30;7.20;;;4.40;;
69414;SDS011;56608;43.530;-5.652;2022-12-18T02:33:35;8.30;;;4.30;;
69414;SDS011;56608;43.530;-5.652;2022-12-18T02:34:38;7.95;;;4.40;;
69414;SDS011;56608;43.530;-5.652;2022-12-18T02:35:41;6.90;;;4.12;;
69414;SDS011;56608;43.530;-5.652;2022-12-18T02:36:45;10.05;;;5.03;;
69414;SDS011;56608;43.530;-5.652;2022-12-18T02:37:48;8.32;;;4.43;;
69414;SDS011;56608;43.530;-5.652;2022-12-18T02:38:50;8.10;;;5.05;;
69414;SDS011;56608;43.530;-5.652;2022-12-18T02:39:53;7.85;;;4.60;;
69414;SDS011;56608;43.530;-5.652;2022-12-18T02:40:57;7.32;;;4.75;;
69414;SDS011;56608;43.530;-5.652;2022-12-18T02:42:00;9.20;;;4.93;;
69414;SDS011;56608;43.530;-5.652;2022-12-18T02:43:12;6.70;;;4.53;;
69414;SDS011;56608;43.530;-5.652;2022-12-18T02:44:15;6.32;;;4.28;;
69414;SDS011;56608;43.530;-5.652;2022-12-18T02:45:17;5.32;;;4.35;;
69414;SDS011;56608;43.530;-5.652;2022-12-18T02:47:26;6.50;;;4.15;;
69414;SDS011;56608;43.530;-5.652;2022-12-18T02:48:32;6.93;;;4.50;;
69414;SDS011;56608;43.530;-5.652;2022-12-18T02:53:57;6.07;;;4.10;;
69414;SDS011;56608;43.530;-5.652;2022-12-18T02:59:58;9.13;;;4.78;;
69414;SDS011;56608;43.530;-5.652;2022-12-18T03:01:28;9.25;;;4.35;;
69414;SDS011;56608;43.530;-5.652;2022-12-18T03:02:39;6.90;;;4.80;;
69414;SDS011;56608;43.530;-5.652;2022-12-18T03:04:20;7.15;;;4.45;;
69414;SDS011;56608;43.530;-5.652;2022-12-18T03:05:33;8.00;;;4.70;;
69414;SDS011;56608;43.530;-5.652;2022-12-18T03:06:40;10.15;;;4.80;;
69414;SDS011;56608;43.530;-5.652;2022-12-18T03:07:46;7.90;;;4.87;;
69414;SDS011;56608;43.530;-5.652;2022-12-18T03:08:54;8.05;;;4.60;;
69414;SDS011;56608;43.530;-5.652;2022-12-18T03:09:59;9.38;;;4.40;;
69414;SDS011;56608;43.530;-5.652;2022-12-18T03:11:02;8.60;;;4.87;;
69414;SDS011;56608;43.530;-5.652;2022-12-18T03:12:10;6.57;;;4.32;;
69414;SDS011;56608;43.530;-5.652;2022-12-18T03:13:57;6.25;;;4.43;;
69414;SDS011;56608;43.530;-5.652;2022-12-18T03:15:08;7.10;;;4.20;;
69414;SDS011;56608;43.530;-5.652;2022-12-18T03:16:17;7.93;;;4.60;;
69414;SDS011;56608;43.530;-5.652;2022-12-18T03:17:24;7.30;;;4.65;;
69414;SDS011;56608;43.530;-5.652;2022-12-18T03:19:41;5.20;;;4.00;;
69414;SDS011;56608;43.530;-5.652;2022-12-18T03:20:47;7.68;;;4.15;;
69414;SDS011;56608;43.530;-5.652;2022-12-18T03:21:54;6.75;;;4.25;;
69414;SDS011;56608;43.530;-5.652;2022-12-18T03:22:59;5.00;;;3.80;;
69414;SDS011;56608;43.530;-5.652;2022-12-18T03:24:08;6.95;;;3.72;;
69414;SDS011;56608;43.530;-5.652;2022-12-18T03:25:13;6.28;;;3.72;;
69414;SDS011;56608;43.530;-5.652;2022-12-18T03:26:17;5.53;;;3.83;;
69414;SDS011;56608;43.530;-5.652;2022-12-18T03:27:22;6.15;;;4.07;;
69414;SDS011;56608;43.530;-5.652;2022-12-18T03:28:25;6.82;;;3.70;;
69414;SDS011;56608;43.530;-5.652;2022-12-18T03:29:35;5.72;;;3.17;;
69414;SDS011;56608;43.530;-5.652;2022-12-18T03:30:41;3.08;;;2.75;;
69414;SDS011;56608;43.530;-5.652;2022-12-18T03:31:51;5.03;;;2.70;;
69414;SDS011;56608;43.530;-5.652;2022-12-18T03:33:39;4.65;;;2.58;;
69414;SDS011;56608;43.530;-5.652;2022-12-18T03:34:26;5.40;;;2.95;;
69414;SDS011;56608;43.530;-5.652;2022-12-18T03:35:33;4.03;;;2.80;;
69414;SDS011;56608;43.530;-5.652;2022-12-18T03:36:38;4.57;;;2.72;;
69414;SDS011;56608;43.530;-5.652;2022-12-18T03:37:40;6.00;;;2.60;;
69414;SDS011;56608;43.530;-5.652;2022-12-18T03:38:41;3.80;;;2.90;;
69414;SDS011;56608;43.530;-5.652;2022-12-18T03:39:42;4.55;;;2.67;;
69414;SDS011;56608;43.530;-5.652;2022-12-18T03:41:01;5.70;;;2.90;;
69414;SDS011;56608;43.530;-5.652;2022-12-18T03:42:13;5.75;;;2.85;;
69414;SDS011;56608;43.530;-5.652;2022-12-18T03:44:32;6.90;;;3.53;;
69414;SDS011;56608;43.530;-5.652;2022-12-18T03:45:39;7.00;;;3.40;;
69414;SDS011;56608;43.530;-5.652;2022-12-18T03:46:55;5.25;;;3.55;;
69414;SDS011;56608;43.530;-5.652;2022-12-18T03:49:38;8.50;;;3.90;;
69414;SDS011;56608;43.530;-5.652;2022-12-18T03:52:49;6.07;;;3.97;;
69414;SDS011;56608;43.530;-5.652;2022-12-18T03:53:57;10.30;;;4.60;;
69414;SDS011;56608;43.530;-5.652;2022-12-18T03:55:01;6.50;;;4.18;;
69414;SDS011;56608;43.530;-5.652;2022-12-18T03:56:04;6.22;;;4.20;;
69414;SDS011;56608;43.530;-5.652;2022-12-18T03:57:09;10.32;;;4.70;;
69414;SDS011;56608;43.530;-5.652;2022-12-18T03:58:15;8.65;;;4.20;;
69414;SDS011;56608;43.530;-5.652;2022-12-18T03:59:19;5.30;;;3.67;;
69414;SDS011;56608;43.530;-5.652;2022-12-18T04:00:21;7.35;;;3.90;;
69414;SDS011;56608;43.530;-5.652;2022-12-18T04:01:23;7.75;;;4.20;;
69414;SDS011;56608;43.530;-5.652;2022-12-18T04:02:29;6.62;;;4.32;;
69414;SDS011;56608;43.530;-5.652;2022-12-18T04:03:32;10.02;;;4.12;;
69414;SDS011;56608;43.530;-5.652;2022-12-18T04:04:37;6.90;;;3.70;;
69414;SDS011;56608;43.530;-5.652;2022-12-18T04:05:40;6.37;;;4.40;;
69414;SDS011;56608;43.530;-5.652;2022-12-18T04:06:43;10.30;;;4.32;;
69414;SDS011;56608;43.530;-5.652;2022-12-18T04:07:47;6.87;;;3.83;;
69414;SDS011;56608;43.530;-5.652;2022-12-18T04:08:49;7.80;;;4.50;;
69414;SDS011;56608;43.530;-5.652;2022-12-18T04:09:52;6.93;;;4.00;;
69414;SDS011;56608;43.530;-5.652;2022-12-18T04:10:57;6.82;;;4.18;;
69414;SDS011;56608;43.530;-5.652;2022-12-18T04:11:58;5.70;;;3.75;;
69414;SDS011;56608;43.530;-5.652;2022-12-18T04:12:59;8.13;;;4.40;;
69414;SDS011;56608;43.530;-5.652;2022-12-18T04:14:01;6.72;;;4.20;;
69414;SDS011;56608;43.530;-5.652;2022-12-18T04:15:02;6.25;;;4.10;;
69414;SDS011;56608;43.530;-5.652;2022-12-18T04:16:04;7.25;;;4.10;;
69414;SDS011;56608;43.530;-5.652;2022-12-18T04:17:06;6.20;;;3.85;;
69414;SDS011;56608;43.530;-5.652;2022-12-18T04:18:07;5.57;;;3.83;;
69414;SDS011;56608;43.530;-5.652;2022-12-18T04:19:08;7.70;;;4.40;;
69414;SDS011;56608;43.530;-5.652;2022-12-18T04:20:10;5.75;;;3.50;;
69414;SDS011;56608;43.530;-5.652;2022-12-18T04:21:12;6.07;;;3.87;;
69414;SDS011;56608;43.530;-5.652;2022-12-18T04:22:13;9.15;;;4.15;;
69414;SDS011;56608;43.530;-5.652;2022-12-18T04:23:15;7.32;;;4.57;;
69414;SDS011;56608;43.530;-5.652;2022-12-18T04:24:16;7.75;;;4.07;;
69414;SDS011;56608;43.530;-5.652;2022-12-18T04:25:17;8.15;;;4.40;;
69414;SDS011;56608;43.530;-5.652;2022-12-18T04:26:19;8.43;;;4.32;;
69414;SDS011;56608;43.530;-5.652;2022-12-18T04:28:22;7.85;;;4.57;;
69414;SDS011;56608;43.530;-5.652;2022-12-18T04:29:23;10.38;;;5.07;;
69414;SDS011;56608;43.530;-5.652;2022-12-18T04:30:24;7.12;;;4.53;;
69414;SDS011;56608;43.530;-5.652;2022-12-18T04:31:26;8.93;;;4.40;;
69414;SDS011;56608;43.530;-5.652;2022-12-18T04:32:27;8.75;;;4.30;;
69414;SDS011;56608;43.530;-5.652;2022-12-18T04:33:29;6.10;;;3.80;;
69414;SDS011;56608;43.530;-5.652;2022-12-18T04:34:30;6.35;;;3.80;;
69414;SDS011;56608;43.530;-5.652;2022-12-18T04:35:32;6.60;;;4.30;;
69414;SDS011;56608;43.530;-5.652;2022-12-18T04:36:33;5.20;;;3.70;;
69414;SDS011;56608;43.530;-5.652;2022-12-18T04:37:34;6.30;;;3.92;;
69414;SDS011;56608;43.530;-5.652;2022-12-18T04:38:36;5.85;;;3.72;;
69414;SDS011;56608;43.530;-5.652;2022-12-18T04:39:37;6.00;;;3.50;;
69414;SDS011;56608;43.530;-5.652;2022-12-18T04:40:38;5.10;;;3.42;;
69414;SDS011;56608;43.530;-5.652;2022-12-18T04:41:40;5.80;;;3.60;;
69414;SDS011;56608;43.530;-5.652;2022-12-18T04:43:43;9.10;;;3.15;;
69414;SDS011;56608;43.530;-5.652;2022-12-18T04:44:44;5.87;;;3.30;;
69414;SDS011;56608;43.530;-5.652;2022-12-18T04:45:45;5.33;;;3.93;;
69414;SDS011;56608;43.530;-5.652;2022-12-18T04:46:47;4.83;;;3.30;;
69414;SDS011;56608;43.530;-5.652;2022-12-18T04:47:48;5.85;;;3.80;;
69414;SDS011;56608;43.530;-5.652;2022-12-18T04:48:50;7.50;;;4.20;;
69414;SDS011;56608;43.530;-5.652;2022-12-18T04:49:51;5.32;;;3.50;;
69414;SDS011;56608;43.530;-5.652;2022-12-18T04:50:52;6.30;;;3.92;;
69414;SDS011;56608;43.530;-5.652;2022-12-18T04:51:54;5.33;;;3.93;;
69414;SDS011;56608;43.530;-5.652;2022-12-18T04:52:55;6.00;;;4.20;;
69414;SDS011;56608;43.530;-5.652;2022-12-18T04:53:57;10.65;;;4.75;;
69414;SDS011;56608;43.530;-5.652;2022-12-18T04:54:58;7.85;;;4.40;;
69414;SDS011;56608;43.530;-5.652;2022-12-18T04:57:04;8.77;;;5.82;;
69414;SDS011;56608;43.530;-5.652;2022-12-18T04:58:06;9.30;;;5.20;;
69414;SDS011;56608;43.530;-5.652;2022-12-18T04:59:07;8.23;;;4.90;;
69414;SDS011;56608;43.530;-5.652;2022-12-18T05:00:08;7.55;;;5.25;;
69414;SDS011;56608;43.530;-5.652;2022-12-18T05:01:10;7.90;;;5.10;;
69414;SDS011;56608;43.530;-5.652;2022-12-18T05:02:13;6.78;;;5.07;;
69414;SDS011;56608;43.530;-5.652;2022-12-18T05:03:14;9.35;;;5.30;;
69414;SDS011;56608;43.530;-5.652;2022-12-18T05:04:15;7.07;;;4.93;;
69414;SDS011;56608;43.530;-5.652;2022-12-18T05:05:17;6.15;;;4.43;;
69414;SDS011;56608;43.530;-5.652;2022-12-18T05:06:18;7.25;;;4.97;;
69414;SDS011;56608;43.530;-5.652;2022-12-18T05:07:20;11.20;;;5.30;;
69414;SDS011;56608;43.530;-5.652;2022-12-18T05:08:21;7.35;;;4.40;;
69414;SDS011;56608;43.530;-5.652;2022-12-18T05:09:23;8.88;;;4.40;;
69414;SDS011;56608;43.530;-5.652;2022-12-18T05:11:25;6.72;;;4.25;;
69414;SDS011;56608;43.530;-5.652;2022-12-18T05:12:26;6.30;;;4.00;;
69414;SDS011;56608;43.530;-5.652;2022-12-18T05:13:28;4.82;;;3.20;;
69414;SDS011;56608;43.530;-5.652;2022-12-18T05:14:29;7.97;;;3.80;;
69414;SDS011;56608;43.530;-5.652;2022-12-18T05:15:31;6.12;;;3.45;;
69414;SDS011;56608;43.530;-5.652;2022-12-18T05:16:33;5.35;;;3.55;;
69414;SDS011;56608;43.530;-5.652;2022-12-18T05:17:34;4.72;;;3.17;;
69414;SDS011;56608;43.530;-5.652;2022-12-18T05:18:36;5.80;;;3.08;;
69414;SDS011;56608;43.530;-5.652;2022-12-18T05:19:38;4.57;;;3.37;;
69414;SDS011;56608;43.530;-5.652;2022-12-18T05:20:39;3.97;;;3.10;;
69414;SDS011;56608;43.530;-5.652;2022-12-18T05:21:40;7.05;;;3.55;;
69414;SDS011;56608;43.530;-5.652;2022-12-18T05:22:41;4.73;;;3.03;;
69414;SDS011;56608;43.530;-5.652;2022-12-18T05:23:43;3.83;;;3.03;;
69414;SDS011;56608;43.530;-5.652;2022-12-18T05:24:44;6.32;;;3.60;;
69414;SDS011;56608;43.530;-5.652;2022-12-18T05:26:54;5.45;;;3.28;;
69414;SDS011;56608;43.530;-5.652;2022-12-18T05:27:55;6.10;;;3.50;;
69414;SDS011;56608;43.530;-5.652;2022-12-18T05:28:56;4.95;;;3.10;;
69414;SDS011;56608;43.530;-5.652;2022-12-18T05:29:58;5.97;;;3.08;;
69414;SDS011;56608;43.530;-5.652;2022-12-18T05:30:59;8.60;;;3.50;;
69414;SDS011;56608;43.530;-5.652;2022-12-18T05:32:03;5.95;;;3.10;;
69414;SDS011;56608;43.530;-5.652;2022-12-18T05:33:04;5.97;;;3.47;;
69414;SDS011;56608;43.530;-5.652;2022-12-18T05:34:05;3.85;;;3.08;;
69414;SDS011;56608;43.530;-5.652;2022-12-18T05:35:07;6.45;;;3.33;;
69414;SDS011;56608;43.530;-5.652;2022-12-18T05:36:10;6.70;;;2.95;;
69414;SDS011;56608;43.530;-5.652;2022-12-18T05:37:12;6.20;;;2.95;;
69414;SDS011;56608;43.530;-5.652;2022-12-18T05:38:13;7.62;;;2.90;;
69414;SDS011;56608;43.530;-5.652;2022-12-18T05:39:15;3.92;;;2.72;;
69414;SDS011;56608;43.530;-5.652;2022-12-18T05:40:15;3.93;;;2.90;;
69414;SDS011;56608;43.530;-5.652;2022-12-18T05:41:17;4.70;;;2.78;;
69414;SDS011;56608;43.530;-5.652;2022-12-18T05:42:19;6.25;;;2.80;;
69414;SDS011;56608;43.530;-5.652;2022-12-18T05:43:20;7.25;;;3.30;;
69414;SDS011;56608;43.530;-5.652;2022-12-18T05:44:25;4.82;;;2.92;;
69414;SDS011;56608;43.530;-5.652;2022-12-18T05:45:26;8.57;;;3.00;;
69414;SDS011;56608;43.530;-5.652;2022-12-18T05:46:28;4.80;;;3.33;;
69414;SDS011;56608;43.530;-5.652;2022-12-18T05:47:30;4.43;;;2.87;;
69414;SDS011;56608;43.530;-5.652;2022-12-18T05:48:30;6.70;;;3.60;;
69414;SDS011;56608;43.530;-5.652;2022-12-18T05:49:32;4.65;;;2.97;;
69414;SDS011;56608;43.530;-5.652;2022-12-18T05:50:37;4.70;;;3.05;;
69414;SDS011;56608;43.530;-5.652;2022-12-18T05:51:39;5.75;;;2.87;;
69414;SDS011;56608;43.530;-5.652;2022-12-18T05:52:40;5.28;;;3.20;;
69414;SDS011;56608;43.530;-5.652;2022-12-18T05:53:42;4.82;;;2.60;;
69414;SDS011;56608;43.530;-5.652;2022-12-18T05:54:44;4.18;;;2.92;;
69414;SDS011;56608;43.530;-5.652;2022-12-18T05:55:45;3.85;;;2.65;;
69414;SDS011;56608;43.530;-5.652;2022-12-18T05:56:47;3.70;;;2.80;;
69414;SDS011;56608;43.530;-5.652;2022-12-18T05:57:48;2.90;;;2.40;;
69414;SDS011;56608;43.530;-5.652;2022-12-18T05:58:53;4.40;;;1.98;;
69414;SDS011;56608;43.530;-5.652;2022-12-18T05:59:55;3.90;;;2.60;;
69414;SDS011;56608;43.530;-5.652;2022-12-18T06:00:56;4.13;;;2.40;;
69414;SDS011;56608;43.530;-5.652;2022-12-18T06:01:58;4.55;;;2.33;;
69414;SDS011;56608;43.530;-5.652;2022-12-18T06:02:59;2.30;;;1.98;;
69414;SDS011;56608;43.530;-5.652;2022-12-18T06:04:00;4.97;;;1.80;;
69414;SDS011;56608;43.530;-5.652;2022-12-18T06:05:02;2.28;;;1.80;;
69414;SDS011;56608;43.530;-5.652;2022-12-18T06:06:03;2.70;;;1.80;;
69414;SDS011;56608;43.530;-5.652;2022-12-18T06:08:06;6.00;;;1.90;;
69414;SDS011;56608;43.530;-5.652;2022-12-18T06:09:08;2.28;;;1.60;;
69414;SDS011;56608;43.530;-5.652;2022-12-18T06:10:10;2.37;;;1.60;;
69414;SDS011;56608;43.530;-5.652;2022-12-18T06:11:12;3.90;;;1.73;;
69414;SDS011;56608;43.530;-5.652;2022-12-18T06:12:16;7.47;;;1.90;;
69414;SDS011;56608;43.530;-5.652;2022-12-18T06:13:17;3.60;;;1.77;;
69414;SDS011;56608;43.530;-5.652;2022-12-18T06:14:19;1.90;;;1.60;;
69414;SDS011;56608;43.530;-5.652;2022-12-18T06:15:20;3.93;;;1.70;;
69414;SDS011;56608;43.530;-5.652;2022-12-18T06:16:20;6.27;;;2.23;;
69414;SDS011;56608;43.530;-5.652;2022-12-18T06:17:22;2.85;;;1.92;;
69414;SDS011;56608;43.530;-5.652;2022-12-18T06:18:24;5.55;;;1.83;;
69414;SDS011;56608;43.530;-5.652;2022-12-18T06:19:25;2.42;;;1.90;;
69414;SDS011;56608;43.530;-5.652;2022-12-18T06:20:26;3.85;;;1.65;;
69414;SDS011;56608;43.530;-5.652;2022-12-18T06:21:28;2.58;;;1.65;;
69414;SDS011;56608;43.530;-5.652;2022-12-18T06:22:30;2.95;;;1.40;;
69414;SDS011;56608;43.530;-5.652;2022-12-18T06:23:33;3.47;;;1.87;;
69414;SDS011;56608;43.530;-5.652;2022-12-18T06:24:34;4.72;;;1.92;;
69414;SDS011;56608;43.530;-5.652;2022-12-18T06:25:38;2.40;;;1.55;;
69414;SDS011;56608;43.530;-5.652;2022-12-18T06:26:40;3.42;;;1.60;;
69414;SDS011;56608;43.530;-5.652;2022-12-18T06:28:43;2.15;;;1.50;;
69414;SDS011;56608;43.530;-5.652;2022-12-18T06:29:44;2.80;;;1.30;;
69414;SDS011;56608;43.530;-5.652;2022-12-18T06:30:46;1.80;;;1.45;;
69414;SDS011;56608;43.530;-5.652;2022-12-18T06:31:49;2.58;;;1.67;;
69414;SDS011;56608;43.530;-5.652;2022-12-18T06:32:50;7.40;;;1.90;;
69414;SDS011;56608;43.530;-5.652;2022-12-18T06:33:52;3.12;;;1.65;;
69414;SDS011;56608;43.530;-5.652;2022-12-18T06:34:53;4.90;;;1.90;;
69414;SDS011;56608;43.530;-5.652;2022-12-18T06:36:14;1.50;;;1.20;;
69414;SDS011;56608;43.530;-5.652;2022-12-18T06:37:15;3.72;;;1.55;;
69414;SDS011;56608;43.530;-5.652;2022-12-18T06:38:16;4.50;;;1.70;;
69414;SDS011;56608;43.530;-5.652;2022-12-18T06:39:18;10.35;;;5.78;;
69414;SDS011;56608;43.530;-5.652;2022-12-18T06:40:19;3.30;;;2.10;;
69414;SDS011;56608;43.530;-5.652;2022-12-18T06:42:22;2.60;;;1.73;;
69414;SDS011;56608;43.530;-5.652;2022-12-18T06:43:25;2.12;;;1.75;;
69414;SDS011;56608;43.530;-5.652;2022-12-18T06:44:27;2.60;;;1.83;;
69414;SDS011;56608;43.530;-5.652;2022-12-18T06:45:28;3.10;;;1.85;;
69414;SDS011;56608;43.530;-5.652;2022-12-18T06:46:30;2.37;;;1.55;;
69414;SDS011;56608;43.530;-5.652;2022-12-18T06:47:31;3.75;;;2.10;;
69414;SDS011;56608;43.530;-5.652;2022-12-18T06:48:32;3.33;;;1.87;;
69414;SDS011;56608;43.530;-5.652;2022-12-18T06:50:35;2.28;;;1.60;;
69414;SDS011;56608;43.530;-5.652;2022-12-18T06:51:37;4.50;;;1.60;;
69414;SDS011;56608;43.530;-5.652;2022-12-18T06:52:38;3.28;;;1.52;;
69414;SDS011;56608;43.530;-5.652;2022-12-18T06:53:41;3.67;;;1.73;;
69414;SDS011;56608;43.530;-5.652;2022-12-18T06:54:42;3.08;;;1.75;;
69414;SDS011;56608;43.530;-5.652;2022-12-18T06:55:43;4.12;;;1.98;;